sensor_id;sensor_type;location;lat;lon;timestamp;P1;durP1;ratioP1;P2;durP2;ratioP2
53867;SDS011;41577;47.470;19.080;2023-05-29T00:00:03;8.70;;;4.50;;
53867;SDS011;41577;47.470;19.080;2023-05-29T00:00:20;13.82;;;4.97;;
53867;SDS011;41577;47.470;19.080;2023-05-29T00:00:32;12.52;;;5.10;;
53867;SDS011;41577;47.470;19.080;2023-05-29T00:00:44;13.63;;;5.30;;
53867;SDS011;41577;47.470;19.080;2023-05-29T00:00:56;15.02;;;5.20;;
53867;SDS011;41577;47.470;19.080;2023-05-29T00:01:08;16.58;;;4.90;;
53867;SDS011;41577;47.470;19.080;2023-05-29T00:01:20;9.88;;;4.82;;
53867;SDS011;41577;47.470;19.080;2023-05-29T00:01:31;12.90;;;5.05;;
53867;SDS011;41577;47.470;19.080;2023-05-29T00:01:45;12.75;;;4.82;;
53867;SDS011;41577;47.470;19.080;2023-05-29T00:01:57;10.77;;;4.63;;
53867;SDS011;41577;47.470;19.080;2023-05-29T00:02:09;9.77;;;5.43;;
53867;SDS011;41577;47.470;19.080;2023-05-29T00:02:20;10.48;;;5.70;;
53867;SDS011;41577;47.470;19.080;2023-05-29T00:02:32;10.43;;;5.28;;
53867;SDS011;41577;47.470;19.080;2023-05-29T00:02:44;11.27;;;5.57;;
53867;SDS011;41577;47.470;19.080;2023-05-29T00:02:56;11.27;;;5.47;;
53867;SDS011;41577;47.470;19.080;2023-05-29T00:03:08;9.70;;;5.00;;
53867;SDS011;41577;47.470;19.080;2023-05-29T00:03:20;8.48;;;4.75;;
53867;SDS011;41577;47.470;19.080;2023-05-29T00:03:32;8.50;;;4.82;;
53867;SDS011;41577;47.470;19.080;2023-05-29T00:03:44;8.23;;;4.63;;
53867;SDS011;41577;47.470;19.080;2023-05-29T00:03:57;7.82;;;4.82;;
53867;SDS011;41577;47.470;19.080;2023-05-29T00:04:09;6.70;;;4.68;;
53867;SDS011;41577;47.470;19.080;2023-05-29T00:04:21;7.15;;;4.80;;
53867;SDS011;41577;47.470;19.080;2023-05-29T00:04:33;7.40;;;5.03;;
53867;SDS011;41577;47.470;19.080;2023-05-29T00:04:45;7.22;;;4.53;;
53867;SDS011;41577;47.470;19.080;2023-05-29T00:04:57;6.10;;;4.63;;
53867;SDS011;41577;47.470;19.080;2023-05-29T00:05:08;6.43;;;4.88;;
53867;SDS011;41577;47.470;19.080;2023-05-29T00:05:20;5.55;;;4.68;;
53867;SDS011;41577;47.470;19.080;2023-05-29T00:05:32;5.95;;;4.70;;
53867;SDS011;41577;47.470;19.080;2023-05-29T00:05:44;7.25;;;4.70;;
53867;SDS011;41577;47.470;19.080;2023-05-29T00:05:56;7.72;;;4.63;;
53867;SDS011;41577;47.470;19.080;2023-05-29T00:06:07;7.55;;;4.82;;
53867;SDS011;41577;47.470;19.080;2023-05-29T00:06:19;6.85;;;5.13;;
53867;SDS011;41577;47.470;19.080;2023-05-29T00:06:31;13.07;;;5.53;;
53867;SDS011;41577;47.470;19.080;2023-05-29T00:06:43;15.88;;;5.50;;
53867;SDS011;41577;47.470;19.080;2023-05-29T00:06:55;17.88;;;5.18;;
53867;SDS011;41577;47.470;19.080;2023-05-29T00:07:06;12.05;;;5.10;;
53867;SDS011;41577;47.470;19.080;2023-05-29T00:07:18;8.43;;;4.68;;
53867;SDS011;41577;47.470;19.080;2023-05-29T00:07:30;11.82;;;4.88;;
53867;SDS011;41577;47.470;19.080;2023-05-29T00:07:42;16.20;;;5.18;;
53867;SDS011;41577;47.470;19.080;2023-05-29T00:07:54;16.63;;;5.47;;
53867;SDS011;41577;47.470;19.080;2023-05-29T00:08:05;14.52;;;5.35;;
53867;SDS011;41577;47.470;19.080;2023-05-29T00:08:17;11.02;;;4.93;;
53867;SDS011;41577;47.470;19.080;2023-05-29T00:08:29;10.95;;;4.60;;
53867;SDS011;41577;47.470;19.080;2023-05-29T00:08:41;7.47;;;4.50;;
53867;SDS011;41577;47.470;19.080;2023-05-29T00:08:53;8.02;;;4.63;;
53867;SDS011;41577;47.470;19.080;2023-05-29T00:09:04;9.27;;;4.97;;
53867;SDS011;41577;47.470;19.080;2023-05-29T00:09:16;9.20;;;5.25;;
53867;SDS011;41577;47.470;19.080;2023-05-29T00:09:28;9.98;;;5.43;;
53867;SDS011;41577;47.470;19.080;2023-05-29T00:09:40;8.45;;;5.32;;
53867;SDS011;41577;47.470;19.080;2023-05-29T00:09:52;11.02;;;5.10;;
53867;SDS011;41577;47.470;19.080;2023-05-29T00:10:04;10.60;;;5.20;;
53867;SDS011;41577;47.470;19.080;2023-05-29T00:10:16;8.50;;;5.25;;
53867;SDS011;41577;47.470;19.080;2023-05-29T00:10:28;8.75;;;5.15;;
53867;SDS011;41577;47.470;19.080;2023-05-29T00:10:41;8.25;;;5.07;;
53867;SDS011;41577;47.470;19.080;2023-05-29T00:10:53;6.25;;;5.10;;
53867;SDS011;41577;47.470;19.080;2023-05-29T00:11:05;6.38;;;5.03;;
53867;SDS011;41577;47.470;19.080;2023-05-29T00:11:16;11.38;;;5.45;;
53867;SDS011;41577;47.470;19.080;2023-05-29T00:11:28;11.73;;;5.30;;
53867;SDS011;41577;47.470;19.080;2023-05-29T00:11:40;9.57;;;5.25;;
53867;SDS011;41577;47.470;19.080;2023-05-29T00:11:52;6.70;;;4.90;;
53867;SDS011;41577;47.470;19.080;2023-05-29T00:12:04;7.32;;;5.30;;
53867;SDS011;41577;47.470;19.080;2023-05-29T00:12:16;7.75;;;5.57;;
53867;SDS011;41577;47.470;19.080;2023-05-29T00:12:28;9.70;;;5.45;;
53867;SDS011;41577;47.470;19.080;2023-05-29T00:12:40;11.70;;;5.22;;
53867;SDS011;41577;47.470;19.080;2023-05-29T00:12:51;12.50;;;5.65;;
53867;SDS011;41577;47.470;19.080;2023-05-29T00:13:03;11.68;;;5.80;;
53867;SDS011;41577;47.470;19.080;2023-05-29T00:13:18;7.95;;;5.72;;
53867;SDS011;41577;47.470;19.080;2023-05-29T00:13:30;7.45;;;5.60;;
53867;SDS011;41577;47.470;19.080;2023-05-29T00:13:41;7.82;;;5.65;;
53867;SDS011;41577;47.470;19.080;2023-05-29T00:13:53;9.90;;;5.70;;
53867;SDS011;41577;47.470;19.080;2023-05-29T00:14:05;10.65;;;5.65;;
53867;SDS011;41577;47.470;19.080;2023-05-29T00:14:17;9.05;;;5.32;;
53867;SDS011;41577;47.470;19.080;2023-05-29T00:14:29;11.85;;;5.82;;
53867;SDS011;41577;47.470;19.080;2023-05-29T00:14:41;13.38;;;5.75;;
53867;SDS011;41577;47.470;19.080;2023-05-29T00:14:53;11.63;;;5.68;;
53867;SDS011;41577;47.470;19.080;2023-05-29T00:15:05;11.35;;;5.72;;
53867;SDS011;41577;47.470;19.080;2023-05-29T00:15:17;12.02;;;6.07;;
53867;SDS011;41577;47.470;19.080;2023-05-29T00:15:29;11.20;;;6.05;;
53867;SDS011;41577;47.470;19.080;2023-05-29T00:15:41;11.27;;;6.18;;
53867;SDS011;41577;47.470;19.080;2023-05-29T00:15:53;9.43;;;5.90;;
53867;SDS011;41577;47.470;19.080;2023-05-29T00:16:05;8.35;;;5.78;;
53867;SDS011;41577;47.470;19.080;2023-05-29T00:16:18;13.13;;;6.05;;
53867;SDS011;41577;47.470;19.080;2023-05-29T00:16:29;12.50;;;5.95;;
53867;SDS011;41577;47.470;19.080;2023-05-29T00:16:41;9.10;;;5.68;;
53867;SDS011;41577;47.470;19.080;2023-05-29T00:16:55;10.70;;;5.97;;
53867;SDS011;41577;47.470;19.080;2023-05-29T00:17:06;10.35;;;6.15;;
53867;SDS011;41577;47.470;19.080;2023-05-29T00:17:18;8.18;;;6.18;;
53867;SDS011;41577;47.470;19.080;2023-05-29T00:17:30;8.38;;;5.85;;
53867;SDS011;41577;47.470;19.080;2023-05-29T00:17:42;9.23;;;6.22;;
53867;SDS011;41577;47.470;19.080;2023-05-29T00:17:54;9.68;;;5.72;;
53867;SDS011;41577;47.470;19.080;2023-05-29T00:18:06;9.80;;;5.53;;
53867;SDS011;41577;47.470;19.080;2023-05-29T00:18:18;10.65;;;5.43;;
53867;SDS011;41577;47.470;19.080;2023-05-29T00:18:30;13.63;;;5.80;;
53867;SDS011;41577;47.470;19.080;2023-05-29T00:18:42;15.65;;;6.05;;
53867;SDS011;41577;47.470;19.080;2023-05-29T00:18:54;12.88;;;6.00;;
53867;SDS011;41577;47.470;19.080;2023-05-29T00:19:05;14.63;;;5.85;;
53867;SDS011;41577;47.470;19.080;2023-05-29T00:19:17;12.50;;;5.45;;
53867;SDS011;41577;47.470;19.080;2023-05-29T00:19:29;11.68;;;5.20;;
53867;SDS011;41577;47.470;19.080;2023-05-29T00:19:41;14.68;;;5.57;;
53867;SDS011;41577;47.470;19.080;2023-05-29T00:19:53;18.30;;;5.82;;
53867;SDS011;41577;47.470;19.080;2023-05-29T00:20:05;19.80;;;5.35;;
53867;SDS011;41577;47.470;19.080;2023-05-29T00:20:18;21.13;;;5.72;;
53867;SDS011;41577;47.470;19.080;2023-05-29T00:20:30;14.85;;;6.18;;
53867;SDS011;41577;47.470;19.080;2023-05-29T00:20:42;11.95;;;6.07;;
53867;SDS011;41577;47.470;19.080;2023-05-29T00:20:54;8.82;;;5.28;;
53867;SDS011;41577;47.470;19.080;2023-05-29T00:21:06;9.45;;;5.20;;
53867;SDS011;41577;47.470;19.080;2023-05-29T00:21:18;9.85;;;5.65;;
53867;SDS011;41577;47.470;19.080;2023-05-29T00:21:30;13.63;;;6.10;;
53867;SDS011;41577;47.470;19.080;2023-05-29T00:21:41;14.63;;;6.25;;
53867;SDS011;41577;47.470;19.080;2023-05-29T00:21:53;10.30;;;6.05;;
53867;SDS011;41577;47.470;19.080;2023-05-29T00:22:05;11.75;;;5.70;;
53867;SDS011;41577;47.470;19.080;2023-05-29T00:22:17;13.05;;;5.57;;
53867;SDS011;41577;47.470;19.080;2023-05-29T00:22:29;16.42;;;5.80;;
53867;SDS011;41577;47.470;19.080;2023-05-29T00:22:40;22.02;;;5.63;;
53867;SDS011;41577;47.470;19.080;2023-05-29T00:22:52;22.98;;;5.72;;
53867;SDS011;41577;47.470;19.080;2023-05-29T00:23:04;14.93;;;5.60;;
53867;SDS011;41577;47.470;19.080;2023-05-29T00:23:16;7.72;;;5.60;;
53867;SDS011;41577;47.470;19.080;2023-05-29T00:23:27;7.25;;;5.60;;
53867;SDS011;41577;47.470;19.080;2023-05-29T00:23:39;13.25;;;6.07;;
53867;SDS011;41577;47.470;19.080;2023-05-29T00:23:51;12.35;;;5.78;;
53867;SDS011;41577;47.470;19.080;2023-05-29T00:24:05;7.90;;;5.68;;
53867;SDS011;41577;47.470;19.080;2023-05-29T00:24:17;10.40;;;5.97;;
53867;SDS011;41577;47.470;19.080;2023-05-29T00:24:29;11.68;;;5.97;;
53867;SDS011;41577;47.470;19.080;2023-05-29T00:24:40;12.23;;;6.28;;
53867;SDS011;41577;47.470;19.080;2023-05-29T00:24:52;9.93;;;5.88;;
53867;SDS011;41577;47.470;19.080;2023-05-29T00:25:04;9.82;;;5.63;;
53867;SDS011;41577;47.470;19.080;2023-05-29T00:25:16;10.50;;;5.40;;
53867;SDS011;41577;47.470;19.080;2023-05-29T00:25:28;11.20;;;5.82;;
53867;SDS011;41577;47.470;19.080;2023-05-29T00:25:40;9.05;;;5.72;;
53867;SDS011;41577;47.470;19.080;2023-05-29T00:25:51;9.77;;;5.95;;
53867;SDS011;41577;47.470;19.080;2023-05-29T00:26:04;10.23;;;5.97;;
53867;SDS011;41577;47.470;19.080;2023-05-29T00:26:16;12.65;;;6.22;;
53867;SDS011;41577;47.470;19.080;2023-05-29T00:26:30;11.10;;;6.10;;
53867;SDS011;41577;47.470;19.080;2023-05-29T00:26:43;8.82;;;5.60;;
53867;SDS011;41577;47.470;19.080;2023-05-29T00:26:54;8.80;;;5.47;;
53867;SDS011;41577;47.470;19.080;2023-05-29T00:27:06;8.40;;;5.55;;
53867;SDS011;41577;47.470;19.080;2023-05-29T00:27:18;10.45;;;6.03;;
53867;SDS011;41577;47.470;19.080;2023-05-29T00:27:33;12.23;;;6.05;;
53867;SDS011;41577;47.470;19.080;2023-05-29T00:27:45;11.05;;;5.90;;
53867;SDS011;41577;47.470;19.080;2023-05-29T00:27:57;11.50;;;6.65;;
53867;SDS011;41577;47.470;19.080;2023-05-29T00:28:09;10.43;;;6.55;;
53867;SDS011;41577;47.470;19.080;2023-05-29T00:28:21;8.18;;;5.60;;
53867;SDS011;41577;47.470;19.080;2023-05-29T00:28:33;7.50;;;5.20;;
53867;SDS011;41577;47.470;19.080;2023-05-29T00:28:46;8.93;;;5.65;;
53867;SDS011;41577;47.470;19.080;2023-05-29T00:28:58;9.75;;;5.80;;
53867;SDS011;41577;47.470;19.080;2023-05-29T00:29:10;12.43;;;6.20;;
53867;SDS011;41577;47.470;19.080;2023-05-29T00:29:22;14.95;;;6.30;;
53867;SDS011;41577;47.470;19.080;2023-05-29T00:29:33;15.98;;;6.53;;
53867;SDS011;41577;47.470;19.080;2023-05-29T00:29:46;12.48;;;6.28;;
53867;SDS011;41577;47.470;19.080;2023-05-29T00:29:58;12.35;;;6.53;;
53867;SDS011;41577;47.470;19.080;2023-05-29T00:30:10;12.07;;;6.07;;
53867;SDS011;41577;47.470;19.080;2023-05-29T00:30:22;13.82;;;5.90;;
53867;SDS011;41577;47.470;19.080;2023-05-29T00:30:35;14.38;;;5.88;;
53867;SDS011;41577;47.470;19.080;2023-05-29T00:30:46;13.07;;;6.03;;
53867;SDS011;41577;47.470;19.080;2023-05-29T00:30:58;14.00;;;5.90;;
53867;SDS011;41577;47.470;19.080;2023-05-29T00:31:10;13.68;;;5.70;;
53867;SDS011;41577;47.470;19.080;2023-05-29T00:31:22;10.73;;;5.72;;
53867;SDS011;41577;47.470;19.080;2023-05-29T00:31:34;9.48;;;5.55;;
53867;SDS011;41577;47.470;19.080;2023-05-29T00:31:46;12.02;;;5.43;;
53867;SDS011;41577;47.470;19.080;2023-05-29T00:31:59;13.00;;;5.75;;
53867;SDS011;41577;47.470;19.080;2023-05-29T00:32:12;11.18;;;5.90;;
53867;SDS011;41577;47.470;19.080;2023-05-29T00:32:24;8.63;;;5.53;;
53867;SDS011;41577;47.470;19.080;2023-05-29T00:32:36;7.57;;;5.50;;
53867;SDS011;41577;47.470;19.080;2023-05-29T00:32:48;9.05;;;5.80;;
53867;SDS011;41577;47.470;19.080;2023-05-29T00:33:00;8.65;;;5.57;;
53867;SDS011;41577;47.470;19.080;2023-05-29T00:33:13;11.13;;;5.28;;
53867;SDS011;41577;47.470;19.080;2023-05-29T00:33:26;12.02;;;5.22;;
53867;SDS011;41577;47.470;19.080;2023-05-29T00:33:38;15.23;;;5.28;;
53867;SDS011;41577;47.470;19.080;2023-05-29T00:33:50;13.63;;;5.68;;
53867;SDS011;41577;47.470;19.080;2023-05-29T00:34:02;14.98;;;5.78;;
53867;SDS011;41577;47.470;19.080;2023-05-29T00:34:13;14.23;;;5.38;;
53867;SDS011;41577;47.470;19.080;2023-05-29T00:34:25;18.27;;;5.30;;
53867;SDS011;41577;47.470;19.080;2023-05-29T00:34:37;18.33;;;5.65;;
53867;SDS011;41577;47.470;19.080;2023-05-29T00:34:49;13.10;;;5.80;;
53867;SDS011;41577;47.470;19.080;2023-05-29T00:35:01;12.43;;;6.00;;
53867;SDS011;41577;47.470;19.080;2023-05-29T00:35:13;10.40;;;5.93;;
53867;SDS011;41577;47.470;19.080;2023-05-29T00:35:25;10.38;;;6.10;;
53867;SDS011;41577;47.470;19.080;2023-05-29T00:35:37;9.30;;;6.20;;
53867;SDS011;41577;47.470;19.080;2023-05-29T00:35:48;8.52;;;5.88;;
53867;SDS011;41577;47.470;19.080;2023-05-29T00:36:00;11.85;;;5.93;;
53867;SDS011;41577;47.470;19.080;2023-05-29T00:36:12;15.70;;;5.82;;
53867;SDS011;41577;47.470;19.080;2023-05-29T00:36:25;15.25;;;5.28;;
53867;SDS011;41577;47.470;19.080;2023-05-29T00:36:37;15.30;;;5.28;;
53867;SDS011;41577;47.470;19.080;2023-05-29T00:36:49;11.02;;;5.32;;
53867;SDS011;41577;47.470;19.080;2023-05-29T00:37:01;11.32;;;5.25;;
53867;SDS011;41577;47.470;19.080;2023-05-29T00:37:13;11.27;;;5.35;;
53867;SDS011;41577;47.470;19.080;2023-05-29T00:37:25;17.20;;;5.68;;
53867;SDS011;41577;47.470;19.080;2023-05-29T00:37:37;13.68;;;5.32;;
53867;SDS011;41577;47.470;19.080;2023-05-29T00:37:49;10.20;;;5.38;;
53867;SDS011;41577;47.470;19.080;2023-05-29T00:38:01;9.05;;;5.15;;
53867;SDS011;41577;47.470;19.080;2023-05-29T00:38:12;9.98;;;5.30;;
53867;SDS011;41577;47.470;19.080;2023-05-29T00:38:25;9.70;;;5.22;;
53867;SDS011;41577;47.470;19.080;2023-05-29T00:38:36;9.27;;;5.40;;
53867;SDS011;41577;47.470;19.080;2023-05-29T00:38:48;8.45;;;5.65;;
53867;SDS011;41577;47.470;19.080;2023-05-29T00:39:00;9.88;;;5.93;;
53867;SDS011;41577;47.470;19.080;2023-05-29T00:39:12;9.55;;;5.75;;
53867;SDS011;41577;47.470;19.080;2023-05-29T00:39:24;10.25;;;5.35;;
53867;SDS011;41577;47.470;19.080;2023-05-29T00:39:36;9.25;;;5.00;;
53867;SDS011;41577;47.470;19.080;2023-05-29T00:39:47;8.20;;;5.05;;
53867;SDS011;41577;47.470;19.080;2023-05-29T00:39:59;8.50;;;5.75;;
53867;SDS011;41577;47.470;19.080;2023-05-29T00:40:11;9.45;;;5.95;;
53867;SDS011;41577;47.470;19.080;2023-05-29T00:40:23;15.02;;;5.63;;
53867;SDS011;41577;47.470;19.080;2023-05-29T00:40:35;16.55;;;5.30;;
53867;SDS011;41577;47.470;19.080;2023-05-29T00:40:46;16.67;;;5.28;;
53867;SDS011;41577;47.470;19.080;2023-05-29T00:40:58;10.88;;;5.22;;
53867;SDS011;41577;47.470;19.080;2023-05-29T00:41:13;9.15;;;5.03;;
53867;SDS011;41577;47.470;19.080;2023-05-29T00:41:25;8.43;;;5.38;;
53867;SDS011;41577;47.470;19.080;2023-05-29T00:41:37;9.65;;;5.28;;
53867;SDS011;41577;47.470;19.080;2023-05-29T00:41:49;9.82;;;5.10;;
53867;SDS011;41577;47.470;19.080;2023-05-29T00:42:01;10.90;;;5.63;;
53867;SDS011;41577;47.470;19.080;2023-05-29T00:42:13;8.30;;;5.80;;
53867;SDS011;41577;47.470;19.080;2023-05-29T00:42:24;8.90;;;5.60;;
53867;SDS011;41577;47.470;19.080;2023-05-29T00:42:37;8.93;;;5.55;;
53867;SDS011;41577;47.470;19.080;2023-05-29T00:42:49;7.03;;;5.38;;
53867;SDS011;41577;47.470;19.080;2023-05-29T00:43:00;12.45;;;5.88;;
53867;SDS011;41577;47.470;19.080;2023-05-29T00:43:12;12.88;;;6.03;;
53867;SDS011;41577;47.470;19.080;2023-05-29T00:43:24;12.15;;;5.97;;
53867;SDS011;41577;47.470;19.080;2023-05-29T00:43:36;9.43;;;5.15;;
53867;SDS011;41577;47.470;19.080;2023-05-29T00:43:48;10.55;;;5.43;;
53867;SDS011;41577;47.470;19.080;2023-05-29T00:44:18;7.38;;;5.65;;
53867;SDS011;41577;47.470;19.080;2023-05-29T00:44:30;9.48;;;5.63;;
53867;SDS011;41577;47.470;19.080;2023-05-29T00:44:42;14.85;;;5.90;;
53867;SDS011;41577;47.470;19.080;2023-05-29T00:44:54;14.23;;;5.95;;
53867;SDS011;41577;47.470;19.080;2023-05-29T00:45:06;7.50;;;5.40;;
53867;SDS011;41577;47.470;19.080;2023-05-29T00:45:19;10.75;;;5.38;;
53867;SDS011;41577;47.470;19.080;2023-05-29T00:45:30;14.63;;;5.25;;
53867;SDS011;41577;47.470;19.080;2023-05-29T00:45:42;15.23;;;5.18;;
53867;SDS011;41577;47.470;19.080;2023-05-29T00:45:54;7.88;;;4.80;;
53867;SDS011;41577;47.470;19.080;2023-05-29T00:46:06;6.13;;;4.82;;
53867;SDS011;41577;47.470;19.080;2023-05-29T00:46:18;6.32;;;5.05;;
53867;SDS011;41577;47.470;19.080;2023-05-29T00:46:31;6.00;;;4.95;;
53867;SDS011;41577;47.470;19.080;2023-05-29T00:46:44;7.55;;;5.03;;
53867;SDS011;41577;47.470;19.080;2023-05-29T00:46:56;8.50;;;5.28;;
53867;SDS011;41577;47.470;19.080;2023-05-29T00:47:09;7.90;;;5.00;;
53867;SDS011;41577;47.470;19.080;2023-05-29T00:47:22;15.38;;;5.72;;
53867;SDS011;41577;47.470;19.080;2023-05-29T00:47:33;15.55;;;5.85;;
53867;SDS011;41577;47.470;19.080;2023-05-29T00:47:46;10.60;;;5.57;;
53867;SDS011;41577;47.470;19.080;2023-05-29T00:47:58;8.43;;;5.65;;
53867;SDS011;41577;47.470;19.080;2023-05-29T00:48:10;7.93;;;5.78;;
53867;SDS011;41577;47.470;19.080;2023-05-29T00:48:22;9.30;;;5.72;;
53867;SDS011;41577;47.470;19.080;2023-05-29T00:48:34;12.55;;;5.70;;
53867;SDS011;41577;47.470;19.080;2023-05-29T00:48:47;13.43;;;6.03;;
53867;SDS011;41577;47.470;19.080;2023-05-29T00:48:59;13.30;;;6.22;;
53867;SDS011;41577;47.470;19.080;2023-05-29T00:49:12;12.18;;;6.15;;
53867;SDS011;41577;47.470;19.080;2023-05-29T00:49:25;11.75;;;6.22;;
53867;SDS011;41577;47.470;19.080;2023-05-29T00:49:37;13.35;;;6.10;;
53867;SDS011;41577;47.470;19.080;2023-05-29T00:49:49;11.95;;;5.82;;
53867;SDS011;41577;47.470;19.080;2023-05-29T00:50:03;10.35;;;5.60;;
53867;SDS011;41577;47.470;19.080;2023-05-29T00:50:16;11.65;;;5.47;;
53867;SDS011;41577;47.470;19.080;2023-05-29T00:50:27;11.40;;;5.25;;
53867;SDS011;41577;47.470;19.080;2023-05-29T00:50:40;12.25;;;5.28;;
53867;SDS011;41577;47.470;19.080;2023-05-29T00:50:52;10.48;;;5.07;;
53867;SDS011;41577;47.470;19.080;2023-05-29T00:51:04;8.98;;;5.10;;
53867;SDS011;41577;47.470;19.080;2023-05-29T00:51:16;9.18;;;5.53;;
53867;SDS011;41577;47.470;19.080;2023-05-29T00:51:28;9.23;;;5.40;;
53867;SDS011;41577;47.470;19.080;2023-05-29T00:51:41;11.90;;;5.18;;
53867;SDS011;41577;47.470;19.080;2023-05-29T00:51:53;15.02;;;5.45;;
53867;SDS011;41577;47.470;19.080;2023-05-29T00:52:06;12.65;;;5.88;;
53867;SDS011;41577;47.470;19.080;2023-05-29T00:52:20;12.35;;;5.68;;
53867;SDS011;41577;47.470;19.080;2023-05-29T00:52:32;10.77;;;5.60;;
53867;SDS011;41577;47.470;19.080;2023-05-29T00:52:44;11.15;;;5.20;;
53867;SDS011;41577;47.470;19.080;2023-05-29T00:52:57;10.35;;;5.03;;
53867;SDS011;41577;47.470;19.080;2023-05-29T00:53:09;10.48;;;5.13;;
53867;SDS011;41577;47.470;19.080;2023-05-29T00:53:22;8.82;;;5.50;;
53867;SDS011;41577;47.470;19.080;2023-05-29T00:53:35;9.38;;;5.47;;
53867;SDS011;41577;47.470;19.080;2023-05-29T00:53:47;7.38;;;5.07;;
53867;SDS011;41577;47.470;19.080;2023-05-29T00:54:00;10.05;;;5.57;;
53867;SDS011;41577;47.470;19.080;2023-05-29T00:54:12;11.40;;;6.10;;
53867;SDS011;41577;47.470;19.080;2023-05-29T00:54:29;8.75;;;5.93;;
53867;SDS011;41577;47.470;19.080;2023-05-29T00:54:42;7.15;;;5.10;;
53867;SDS011;41577;47.470;19.080;2023-05-29T00:54:56;7.45;;;5.00;;
53867;SDS011;41577;47.470;19.080;2023-05-29T00:55:08;7.88;;;4.97;;
53867;SDS011;41577;47.470;19.080;2023-05-29T00:55:20;9.05;;;4.90;;
53867;SDS011;41577;47.470;19.080;2023-05-29T00:55:33;9.43;;;5.22;;
53867;SDS011;41577;47.470;19.080;2023-05-29T00:55:45;8.10;;;4.97;;
53867;SDS011;41577;47.470;19.080;2023-05-29T00:55:57;6.75;;;4.80;;
53867;SDS011;41577;47.470;19.080;2023-05-29T00:56:10;7.72;;;5.10;;
53867;SDS011;41577;47.470;19.080;2023-05-29T00:56:24;7.93;;;5.10;;
53867;SDS011;41577;47.470;19.080;2023-05-29T00:56:35;8.20;;;4.90;;
53867;SDS011;41577;47.470;19.080;2023-05-29T00:56:48;7.47;;;4.72;;
53867;SDS011;41577;47.470;19.080;2023-05-29T00:57:00;11.88;;;4.95;;
53867;SDS011;41577;47.470;19.080;2023-05-29T00:57:13;12.30;;;5.35;;
53867;SDS011;41577;47.470;19.080;2023-05-29T00:57:27;7.18;;;5.43;;
53867;SDS011;41577;47.470;19.080;2023-05-29T00:57:40;10.80;;;5.80;;
53867;SDS011;41577;47.470;19.080;2023-05-29T00:57:52;11.23;;;5.60;;
53867;SDS011;41577;47.470;19.080;2023-05-29T00:58:04;7.88;;;4.80;;
53867;SDS011;41577;47.470;19.080;2023-05-29T00:58:16;7.72;;;5.07;;
53867;SDS011;41577;47.470;19.080;2023-05-29T00:58:28;9.27;;;5.45;;
53867;SDS011;41577;47.470;19.080;2023-05-29T00:58:41;10.05;;;5.38;;
53867;SDS011;41577;47.470;19.080;2023-05-29T00:58:56;9.90;;;5.60;;
53867;SDS011;41577;47.470;19.080;2023-05-29T00:59:08;9.32;;;5.22;;
53867;SDS011;41577;47.470;19.080;2023-05-29T00:59:21;7.90;;;4.93;;
53867;SDS011;41577;47.470;19.080;2023-05-29T00:59:33;6.25;;;4.95;;
53867;SDS011;41577;47.470;19.080;2023-05-29T00:59:45;7.90;;;5.10;;
53867;SDS011;41577;47.470;19.080;2023-05-29T00:59:58;12.10;;;4.93;;
53867;SDS011;41577;47.470;19.080;2023-05-29T01:00:11;13.43;;;4.97;;
53867;SDS011;41577;47.470;19.080;2023-05-29T01:00:27;10.50;;;4.70;;
53867;SDS011;41577;47.470;19.080;2023-05-29T01:00:39;8.55;;;4.97;;
53867;SDS011;41577;47.470;19.080;2023-05-29T01:00:51;10.35;;;5.53;;
53867;SDS011;41577;47.470;19.080;2023-05-29T01:01:03;8.93;;;5.55;;
53867;SDS011;41577;47.470;19.080;2023-05-29T01:01:17;9.55;;;5.18;;
53867;SDS011;41577;47.470;19.080;2023-05-29T01:01:29;9.85;;;5.35;;
53867;SDS011;41577;47.470;19.080;2023-05-29T01:01:41;11.10;;;5.60;;
53867;SDS011;41577;47.470;19.080;2023-05-29T01:01:54;11.75;;;5.43;;
53867;SDS011;41577;47.470;19.080;2023-05-29T01:02:07;9.68;;;5.05;;
53867;SDS011;41577;47.470;19.080;2023-05-29T01:02:21;8.10;;;4.90;;
53867;SDS011;41577;47.470;19.080;2023-05-29T01:02:34;8.27;;;4.85;;
53867;SDS011;41577;47.470;19.080;2023-05-29T01:02:47;8.80;;;5.25;;
53867;SDS011;41577;47.470;19.080;2023-05-29T01:03:00;9.32;;;5.30;;
53867;SDS011;41577;47.470;19.080;2023-05-29T01:03:14;14.30;;;5.38;;
53867;SDS011;41577;47.470;19.080;2023-05-29T01:03:26;14.77;;;5.88;;
53867;SDS011;41577;47.470;19.080;2023-05-29T01:03:39;11.20;;;5.90;;
53867;SDS011;41577;47.470;19.080;2023-05-29T01:03:51;8.02;;;4.82;;
53867;SDS011;41577;47.470;19.080;2023-05-29T01:04:06;5.25;;;3.75;;
53867;SDS011;41577;47.470;19.080;2023-05-29T01:04:18;9.48;;;4.22;;
53867;SDS011;41577;47.470;19.080;2023-05-29T01:04:31;11.57;;;4.35;;
53867;SDS011;41577;47.470;19.080;2023-05-29T01:04:43;9.82;;;4.35;;
53867;SDS011;41577;47.470;19.080;2023-05-29T01:04:56;6.60;;;4.38;;
53867;SDS011;41577;47.470;19.080;2023-05-29T01:05:08;7.38;;;4.80;;
53867;SDS011;41577;47.470;19.080;2023-05-29T01:05:20;11.90;;;5.20;;
53867;SDS011;41577;47.470;19.080;2023-05-29T01:05:33;12.48;;;5.20;;
53867;SDS011;41577;47.470;19.080;2023-05-29T01:05:45;11.57;;;4.97;;
53867;SDS011;41577;47.470;19.080;2023-05-29T01:05:57;11.13;;;4.80;;
53867;SDS011;41577;47.470;19.080;2023-05-29T01:06:09;10.60;;;4.75;;
53867;SDS011;41577;47.470;19.080;2023-05-29T01:06:21;7.72;;;5.00;;
53867;SDS011;41577;47.470;19.080;2023-05-29T01:06:33;7.97;;;5.00;;
53867;SDS011;41577;47.470;19.080;2023-05-29T01:06:45;6.20;;;4.72;;
53867;SDS011;41577;47.470;19.080;2023-05-29T01:06:57;7.97;;;4.85;;
53867;SDS011;41577;47.470;19.080;2023-05-29T01:07:09;10.35;;;5.10;;
53867;SDS011;41577;47.470;19.080;2023-05-29T01:07:21;10.82;;;4.97;;
53867;SDS011;41577;47.470;19.080;2023-05-29T01:07:33;9.10;;;4.88;;
53867;SDS011;41577;47.470;19.080;2023-05-29T01:07:45;9.18;;;5.05;;
53867;SDS011;41577;47.470;19.080;2023-05-29T01:07:57;9.27;;;5.10;;
53867;SDS011;41577;47.470;19.080;2023-05-29T01:08:08;7.53;;;4.75;;
53867;SDS011;41577;47.470;19.080;2023-05-29T01:08:21;6.97;;;4.53;;
53867;SDS011;41577;47.470;19.080;2023-05-29T01:08:33;7.80;;;4.43;;
53867;SDS011;41577;47.470;19.080;2023-05-29T01:08:45;8.25;;;4.55;;
53867;SDS011;41577;47.470;19.080;2023-05-29T01:08:57;6.97;;;4.70;;
53867;SDS011;41577;47.470;19.080;2023-05-29T01:09:09;7.00;;;4.55;;
53867;SDS011;41577;47.470;19.080;2023-05-29T01:09:21;7.10;;;4.57;;
53867;SDS011;41577;47.470;19.080;2023-05-29T01:09:32;7.25;;;4.35;;
53867;SDS011;41577;47.470;19.080;2023-05-29T01:09:45;9.60;;;4.25;;
53867;SDS011;41577;47.470;19.080;2023-05-29T01:09:57;9.32;;;4.50;;
53867;SDS011;41577;47.470;19.080;2023-05-29T01:10:11;8.57;;;4.65;;
53867;SDS011;41577;47.470;19.080;2023-05-29T01:10:23;6.80;;;4.53;;
53867;SDS011;41577;47.470;19.080;2023-05-29T01:10:35;6.68;;;4.68;;
53867;SDS011;41577;47.470;19.080;2023-05-29T01:10:47;7.20;;;4.60;;
53867;SDS011;41577;47.470;19.080;2023-05-29T01:11:04;6.22;;;4.40;;
53867;SDS011;41577;47.470;19.080;2023-05-29T01:11:24;6.82;;;4.53;;
53867;SDS011;41577;47.470;19.080;2023-05-29T01:11:45;7.35;;;4.43;;
53867;SDS011;41577;47.470;19.080;2023-05-29T01:12:27;9.88;;;5.43;;
53867;SDS011;41577;47.470;19.080;2023-05-29T01:12:47;9.18;;;5.22;;
53867;SDS011;41577;47.470;19.080;2023-05-29T01:13:03;8.55;;;4.65;;
53867;SDS011;41577;47.470;19.080;2023-05-29T01:13:18;8.18;;;4.35;;